createdAt,value
2022-09-28T05:02:49.237Z,0.80
2022-09-28T05:05:16.071Z,0.70
2022-09-28T05:07:42.921Z,1.40
2022-09-28T05:10:12.464Z,1.25
2022-09-28T05:12:39.229Z,0.90
2022-09-28T05:15:06.287Z,1.00
2022-09-28T05:17:33.027Z,1.50
2022-09-28T05:20:00.694Z,1.30
2022-09-28T05:22:27.430Z,1.05
2022-09-28T05:24:55.016Z,1.30
2022-09-28T05:27:21.934Z,1.30
2022-09-28T05:29:48.689Z,2.22
2022-09-28T05:32:16.837Z,1.60
2022-09-28T05:34:43.566Z,1.67
2022-09-28T05:37:10.294Z,2.03
2022-09-28T05:39:37.024Z,1.20
2022-09-28T05:42:03.802Z,1.38
2022-09-28T05:44:30.533Z,1.48
2022-09-28T05:46:57.294Z,1.52
2022-09-28T05:49:24.003Z,1.60
2022-09-28T05:51:50.774Z,1.40
2022-09-28T05:54:17.698Z,1.60
2022-09-28T05:56:44.700Z,1.98
2022-09-28T05:59:12.173Z,2.05
2022-09-28T06:01:39.264Z,2.75
2022-09-28T06:04:06.081Z,1.45
2022-09-28T06:06:32.823Z,1.40
2022-09-28T06:08:59.562Z,1.50
2022-09-28T06:11:27.131Z,1.70
2022-09-28T06:13:55.555Z,1.70
2022-09-28T06:16:22.364Z,1.75
2022-09-28T06:18:49.138Z,1.40
2022-09-28T06:21:15.877Z,1.30
2022-09-28T06:23:46.849Z,1.20
2022-09-28T06:26:16.393Z,1.30
2022-09-28T06:28:43.293Z,1.60
2022-09-28T06:31:10.323Z,1.70
2022-09-28T06:33:38.610Z,1.08
2022-09-28T06:36:05.575Z,1.30
2022-09-28T06:38:32.350Z,1.20
2022-09-28T06:40:59.221Z,1.83
2022-09-28T06:43:25.998Z,1.50
2022-09-28T06:45:53.161Z,1.50
2022-09-28T06:48:20.147Z,1.67
2022-09-28T06:50:47.608Z,1.70
2022-09-28T06:53:14.807Z,1.55
2022-09-28T06:55:42.649Z,1.73
2022-09-28T06:58:13.723Z,1.10
2022-09-28T07:00:40.770Z,1.13
2022-09-28T07:03:10.388Z,1.25
2022-09-28T07:05:37.297Z,1.35
2022-09-28T07:08:07.265Z,1.17
2022-09-28T07:10:34.081Z,1.42
2022-09-28T07:13:06.282Z,1.17
2022-09-28T07:15:34.578Z,1.15
2022-09-28T07:18:03.972Z,1.30
2022-09-28T07:20:46.251Z,1.30
2022-09-28T07:23:19.858Z,1.23
2022-09-28T07:25:48.056Z,1.52
2022-09-28T07:28:15.225Z,1.60
2022-09-28T07:30:43.366Z,1.60
2022-09-28T07:33:12.588Z,1.40
2022-09-28T07:35:39.403Z,1.80
2022-09-28T07:38:06.744Z,1.88
2022-09-28T07:40:52.443Z,1.85
2022-09-28T07:43:22.913Z,1.88
2022-09-28T07:45:54.020Z,1.83
2022-09-28T07:48:21.028Z,2.05
2022-09-28T07:50:50.258Z,2.20
2022-09-28T07:53:17.489Z,1.95
2022-09-28T07:55:44.262Z,2.47
2022-09-28T07:58:10.986Z,2.00
2022-09-28T08:00:38.294Z,2.00
2022-09-28T08:03:05.057Z,1.73
2022-09-28T08:05:32.127Z,1.98
2022-09-28T08:07:59.710Z,2.40
2022-09-28T08:10:26.743Z,2.30
2022-09-28T08:12:59.243Z,2.33
2022-09-28T08:15:29.602Z,2.42
2022-09-28T08:18:00.494Z,2.20
2022-09-28T08:20:51.571Z,2.22
2022-09-28T08:23:18.809Z,2.30
2022-09-28T08:25:49.416Z,2.28
2022-09-28T08:28:19.676Z,2.03
2022-09-28T08:30:46.863Z,5.53
2022-09-28T08:33:14.262Z,2.80
2022-09-28T08:35:41.851Z,2.88
2022-09-28T08:38:09.035Z,2.35
2022-09-28T08:40:41.967Z,2.78
2022-09-28T08:43:21.262Z,3.00
2022-09-28T08:45:48.037Z,3.10
2022-09-28T08:48:51.750Z,2.88
2022-09-28T08:51:27.573Z,3.42
2022-09-28T08:54:11.019Z,4.50
2022-09-28T08:56:44.935Z,3.47
2022-09-28T09:02:06.092Z,2.75
2022-09-28T09:04:32.831Z,2.70
2022-09-28T09:07:19.786Z,3.13
2022-09-28T09:10:04.372Z,3.55
2022-09-28T09:12:40.126Z,3.08
2022-09-28T09:15:25.892Z,2.88
2022-09-28T09:18:11.484Z,3.30
2022-09-28T09:20:44.567Z,3.58
2022-09-28T09:25:55.122Z,3.25
2022-09-28T09:28:38.284Z,3.28
2022-09-28T09:31:08.657Z,2.88
2022-09-28T09:33:41.349Z,2.20
2022-09-28T09:36:20.386Z,2.35
2022-09-28T09:38:52.493Z,2.30
2022-09-28T09:41:44.935Z,1.88
2022-09-28T09:44:33.633Z,1.88
2022-09-28T09:47:08.226Z,2.00
2022-09-28T09:49:37.937Z,1.98
2022-09-28T09:52:47.704Z,1.55
2022-09-28T09:55:29.701Z,1.48
2022-09-28T09:58:06.513Z,1.70
2022-09-28T10:00:33.268Z,1.90
2022-09-28T10:03:00.600Z,2.00
2022-09-28T10:05:29.306Z,1.80
2022-09-28T10:08:03.794Z,1.60
2022-09-28T10:10:35.646Z,1.58
2022-09-28T10:13:02.435Z,1.50
2022-09-28T10:15:32.983Z,1.65
2022-09-28T10:18:03.026Z,1.75
2022-09-28T10:20:31.790Z,2.13
2022-09-28T10:22:58.520Z,1.48
2022-09-28T10:25:25.330Z,1.52
2022-09-28T10:27:52.663Z,1.77
2022-09-28T10:30:23.322Z,1.67
2022-09-28T10:32:52.472Z,2.63
2022-09-28T10:35:19.177Z,1.58
2022-09-28T10:37:55.162Z,2.28
2022-09-28T10:40:30.446Z,1.70
2022-09-28T10:43:27.701Z,1.48
2022-09-28T10:46:07.800Z,1.75
2022-09-28T10:49:04.853Z,1.75
2022-09-28T10:51:45.097Z,1.40
2022-09-28T10:54:19.741Z,1.60
2022-09-28T10:56:46.745Z,1.67
2022-09-28T10:59:24.373Z,1.50
2022-09-28T11:01:58.367Z,1.67
2022-09-28T11:04:27.844Z,1.10
2022-09-28T11:09:31.445Z,1.50
2022-09-28T11:11:59.039Z,0.70
2022-09-28T11:14:42.483Z,0.98
2022-09-28T11:17:25.668Z,0.70
2022-09-28T11:19:53.802Z,0.88
2022-09-28T11:22:21.349Z,0.82
2022-09-28T11:24:48.993Z,1.10
2022-09-28T11:27:25.664Z,0.98
2022-09-28T11:29:59.102Z,0.93
2022-09-28T11:32:29.684Z,0.88
2022-09-28T11:35:00.495Z,1.20
2022-09-28T11:38:01.490Z,1.00
2022-09-28T11:40:42.275Z,1.08
2022-09-28T11:43:34.121Z,1.10
2022-09-28T11:46:37.157Z,1.17
2022-09-28T11:49:27.937Z,1.00
2022-09-28T11:51:55.553Z,1.20
2022-09-28T11:54:29.007Z,1.00
2022-09-28T11:56:56.091Z,0.90
2022-09-28T11:59:30.100Z,1.05
2022-09-28T12:01:57.538Z,0.90
2022-09-28T12:04:38.071Z,1.02
2022-09-28T12:07:07.690Z,1.00
2022-09-28T12:09:56.228Z,1.30
2022-09-28T12:12:39.475Z,1.13
2022-09-28T12:17:48.292Z,1.25
2022-09-28T12:20:31.054Z,1.17
2022-09-28T12:23:31.756Z,1.10
2022-09-28T12:26:03.322Z,1.20
2022-09-28T12:28:47.940Z,1.35
2022-09-28T12:32:00.895Z,1.25
2022-09-28T12:34:27.712Z,1.30
2022-09-28T12:37:38.415Z,1.00
2022-09-28T12:40:35.451Z,1.20
2022-09-28T12:43:19.614Z,1.10
2022-09-28T12:46:17.677Z,1.00
2022-09-28T12:49:15.887Z,1.17
2022-09-28T12:51:48.452Z,1.20
2022-09-28T12:54:24.905Z,1.45
2022-09-28T12:57:02.252Z,1.58
2022-09-28T12:59:32.539Z,1.60
2022-09-28T13:02:08.546Z,1.20
2022-09-28T13:04:53.838Z,1.30
2022-09-28T13:07:25.305Z,1.33
2022-09-28T13:10:26.185Z,1.17
2022-09-28T13:12:59.060Z,1.13
2022-09-28T13:15:48.703Z,0.95
2022-09-28T13:18:36.654Z,1.15
2022-09-28T13:21:22.002Z,1.40
2022-09-28T13:23:48.975Z,1.00
2022-09-28T13:26:21.648Z,1.10
2022-09-28T13:28:48.398Z,1.23
2022-09-28T13:31:19.430Z,1.50
2022-09-28T13:33:46.137Z,1.67
2022-09-28T13:36:27.881Z,1.48
2022-09-28T13:38:59.427Z,1.30
2022-09-28T13:41:29.694Z,1.30
2022-09-28T13:44:24.402Z,2.00
2022-09-28T13:47:22.505Z,1.60
2022-09-28T13:49:52.597Z,1.13
2022-09-28T13:52:48.360Z,1.08
2022-09-28T13:55:44.239Z,1.35
2022-09-28T13:58:21.944Z,1.50
2022-09-28T14:00:56.150Z,1.92
2022-09-28T14:03:22.990Z,1.17
2022-09-28T14:06:21.095Z,1.30
2022-09-28T14:09:07.067Z,1.00
2022-09-28T14:11:36.973Z,0.95
2022-09-28T14:14:13.938Z,1.00
2022-09-28T14:16:41.433Z,1.00
2022-09-28T14:19:19.160Z,1.35
2022-09-28T14:21:49.984Z,1.10
2022-09-28T14:24:38.499Z,1.20
2022-09-28T14:27:33.395Z,1.20
2022-09-28T14:30:12.383Z,1.00
2022-09-28T14:32:46.302Z,1.23
2022-09-28T14:35:33.234Z,1.00
2022-09-28T14:38:33.922Z,1.10
2022-09-28T14:41:15.187Z,1.27
2022-09-28T14:43:44.986Z,0.90
2022-09-28T14:46:11.950Z,1.45
2022-09-28T14:48:43.198Z,0.90
2022-09-28T14:51:25.042Z,1.10
2022-09-28T14:53:52.413Z,1.88
2022-09-28T14:56:19.648Z,0.80
2022-09-28T14:58:46.645Z,1.10
2022-09-28T15:01:18.291Z,0.93
2022-09-28T15:03:45.068Z,1.13
2022-09-28T15:06:16.265Z,0.65
2022-09-28T15:08:43.093Z,1.00
2022-09-28T15:11:22.774Z,1.20
2022-09-28T15:13:50.081Z,1.10
2022-09-28T15:16:17.332Z,1.60
2022-09-28T15:19:13.366Z,1.60
2022-09-28T15:21:41.281Z,1.98
2022-09-28T15:24:28.013Z,1.60
2022-09-28T15:26:54.725Z,2.05
2022-09-28T15:29:22.903Z,1.35
2022-09-28T15:31:54.112Z,1.95
2022-09-28T15:34:46.622Z,1.30
2022-09-28T15:37:15.638Z,1.40
2022-09-28T15:39:42.554Z,1.30
2022-09-28T15:42:09.307Z,1.35
2022-09-28T15:44:37.182Z,1.75
2022-09-28T15:47:15.627Z,1.25
2022-09-28T15:49:59.009Z,1.15
2022-09-28T15:52:30.738Z,1.25
2022-09-28T15:54:57.541Z,1.40
2022-09-28T15:57:37.048Z,1.20
2022-09-28T16:00:28.857Z,1.17
2022-09-28T16:03:19.166Z,1.20
2022-09-28T16:05:58.487Z,1.20
2022-09-28T16:08:40.418Z,1.73
2022-09-28T16:11:31.431Z,1.50
2022-09-28T16:14:18.284Z,1.60
2022-09-28T16:16:48.507Z,1.08
2022-09-28T16:19:32.246Z,1.38
2022-09-28T16:21:59.596Z,1.60
2022-09-28T16:24:33.391Z,1.20
2022-09-28T16:27:05.440Z,1.33
2022-09-28T16:29:40.223Z,1.08
2022-09-28T16:32:25.595Z,1.10
2022-09-28T16:35:13.151Z,0.90
2022-09-28T16:37:43.715Z,1.02
2022-09-28T16:40:11.033Z,1.00
2022-09-28T16:42:44.418Z,1.88
2022-09-28T16:45:18.339Z,1.40
2022-09-28T16:47:46.854Z,1.65
2022-09-28T16:50:15.187Z,1.63
2022-09-28T16:53:11.442Z,1.15
2022-09-28T16:55:40.823Z,2.30
2022-09-28T16:58:08.186Z,1.10
2022-09-28T17:00:35.054Z,0.70
2022-09-28T17:03:04.294Z,0.90
2022-09-28T17:05:31.055Z,1.10
2022-09-28T17:08:02.131Z,1.25
2022-09-28T17:10:31.706Z,1.42
2022-09-28T17:12:59.102Z,1.20
2022-09-28T17:15:26.130Z,1.40
2022-09-28T17:17:53.242Z,0.80
2022-09-28T17:20:25.449Z,0.85
2022-09-28T17:22:52.208Z,1.20
2022-09-28T17:25:19.550Z,0.90
2022-09-28T17:27:46.839Z,1.10
2022-09-28T17:30:14.014Z,1.25
2022-09-28T17:32:47.195Z,1.00
2022-09-28T17:37:52.707Z,1.02
2022-09-28T17:40:24.356Z,0.88
2022-09-28T17:42:51.881Z,0.90
2022-09-28T17:45:18.600Z,0.93
2022-09-28T17:47:45.487Z,1.17
2022-09-28T17:50:24.106Z,1.20
2022-09-28T17:52:52.353Z,2.30
2022-09-28T17:55:30.440Z,1.23
2022-09-28T17:57:58.147Z,1.10
2022-09-28T18:00:27.435Z,1.00
2022-09-28T18:02:55.442Z,0.98
2022-09-28T18:05:23.470Z,0.93
2022-09-28T18:07:50.789Z,1.08
2022-09-28T18:10:19.768Z,0.80
2022-09-28T18:12:47.024Z,0.80
2022-09-28T18:15:13.977Z,0.82
2022-09-28T18:17:40.894Z,0.70
2022-09-28T18:20:09.077Z,1.13
2022-09-28T18:22:36.078Z,0.82
2022-09-28T18:25:03.394Z,1.00
2022-09-28T18:27:30.485Z,0.80
2022-09-28T18:29:57.404Z,1.05
2022-09-28T18:32:24.245Z,1.15
2022-09-28T18:34:50.997Z,1.08
2022-09-28T18:37:17.837Z,1.27
2022-09-28T18:39:45.398Z,1.08
2022-09-28T18:42:13.286Z,0.82
2022-09-28T18:44:40.084Z,0.98
2022-09-28T18:47:06.971Z,1.02
2022-09-28T18:49:34.415Z,1.23
2022-09-28T18:52:01.586Z,1.30
2022-09-28T18:54:28.391Z,1.20
2022-09-28T18:56:56.482Z,1.20
2022-09-28T18:59:23.763Z,1.10
2022-09-28T19:01:51.297Z,1.30
2022-09-28T19:04:20.081Z,1.60
2022-09-28T19:06:54.363Z,1.33
2022-09-28T19:09:21.915Z,1.20
2022-09-28T19:11:49.170Z,1.23
2022-09-28T19:14:16.203Z,1.55
2022-09-28T19:16:44.051Z,1.90
2022-09-28T19:19:12.686Z,2.83
2022-09-28T19:21:40.670Z,1.30
2022-09-28T19:24:07.538Z,1.48
2022-09-28T19:26:34.306Z,1.55
2022-09-28T19:29:02.489Z,1.13
2022-09-28T19:31:29.730Z,1.05
2022-09-28T19:33:56.810Z,1.30
2022-09-28T19:36:24.645Z,1.30
2022-09-28T19:38:52.738Z,0.88
2022-09-28T19:41:49.523Z,1.00
2022-09-28T19:44:27.002Z,0.80
2022-09-28T19:47:07.463Z,1.05
2022-09-28T19:49:38.125Z,1.85
2022-09-28T19:52:13.989Z,0.98
2022-09-28T19:54:44.561Z,0.80
2022-09-28T19:57:12.705Z,0.93
2022-09-28T19:59:39.661Z,0.90
2022-09-28T20:02:06.946Z,0.85
2022-09-28T20:04:33.982Z,0.80
2022-09-28T20:07:01.874Z,0.70
2022-09-28T20:09:28.938Z,0.80
2022-09-28T20:11:55.791Z,0.80
2022-09-28T20:14:24.603Z,0.60
2022-09-28T20:16:55.174Z,0.70
2022-09-28T20:19:23.256Z,0.60
2022-09-28T20:21:50.200Z,0.88
2022-09-28T20:24:17.409Z,0.90
2022-09-28T20:26:44.758Z,0.70
2022-09-28T20:29:11.837Z,1.08
2022-09-28T20:31:38.869Z,0.98
2022-09-28T20:34:05.901Z,0.90
2022-09-28T20:36:32.848Z,1.00
2022-09-28T20:39:02.979Z,0.80
2022-09-28T20:41:34.766Z,1.10
2022-09-28T20:44:05.697Z,0.80
